sensor_id;sensor_type;location;lat;lon;timestamp;temperature;humidity
6270;DHT22;3168;51.684;6.954;2024-03-29T00:02:15;8.40;1.00
6270;DHT22;3168;51.684;6.954;2024-03-29T00:04:41;8.40;1.00
6270;DHT22;3168;51.684;6.954;2024-03-29T00:07:07;8.30;1.00
6270;DHT22;3168;51.684;6.954;2024-03-29T00:09:33;8.40;1.00
6270;DHT22;3168;51.684;6.954;2024-03-29T00:11:59;8.40;1.00
6270;DHT22;3168;51.684;6.954;2024-03-29T00:14:25;8.40;1.00
6270;DHT22;3168;51.684;6.954;2024-03-29T00:16:52;8.40;1.00
6270;DHT22;3168;51.684;6.954;2024-03-29T00:19:17;8.40;1.00
6270;DHT22;3168;51.684;6.954;2024-03-29T00:21:43;8.40;1.00
6270;DHT22;3168;51.684;6.954;2024-03-29T00:24:09;8.40;1.00
6270;DHT22;3168;51.684;6.954;2024-03-29T00:26:35;8.40;1.00
6270;DHT22;3168;51.684;6.954;2024-03-29T00:29:01;8.40;1.00
6270;DHT22;3168;51.684;6.954;2024-03-29T00:31:27;8.40;1.00
6270;DHT22;3168;51.684;6.954;2024-03-29T00:33:53;8.40;1.00
6270;DHT22;3168;51.684;6.954;2024-03-29T00:36:19;8.40;1.00
6270;DHT22;3168;51.684;6.954;2024-03-29T00:38:46;8.30;1.00
6270;DHT22;3168;51.684;6.954;2024-03-29T00:41:12;8.30;1.00
6270;DHT22;3168;51.684;6.954;2024-03-29T00:43:38;8.40;1.00
6270;DHT22;3168;51.684;6.954;2024-03-29T00:46:04;8.40;1.00
6270;DHT22;3168;51.684;6.954;2024-03-29T00:48:30;8.40;1.00
6270;DHT22;3168;51.684;6.954;2024-03-29T00:50:56;8.50;1.00
6270;DHT22;3168;51.684;6.954;2024-03-29T00:53:22;8.50;1.00
6270;DHT22;3168;51.684;6.954;2024-03-29T00:55:48;8.50;1.00
6270;DHT22;3168;51.684;6.954;2024-03-29T00:58:14;8.60;1.00
6270;DHT22;3168;51.684;6.954;2024-03-29T01:00:40;8.60;1.00
6270;DHT22;3168;51.684;6.954;2024-03-29T01:03:06;8.60;1.00
6270;DHT22;3168;51.684;6.954;2024-03-29T01:05:32;8.60;1.00
6270;DHT22;3168;51.684;6.954;2024-03-29T01:07:58;8.60;1.00
6270;DHT22;3168;51.684;6.954;2024-03-29T01:10:24;8.70;1.00
6270;DHT22;3168;51.684;6.954;2024-03-29T01:12:51;8.70;1.00
6270;DHT22;3168;51.684;6.954;2024-03-29T01:15:17;8.70;1.00
6270;DHT22;3168;51.684;6.954;2024-03-29T01:17:43;8.70;1.00
6270;DHT22;3168;51.684;6.954;2024-03-29T01:20:10;8.70;1.00
6270;DHT22;3168;51.684;6.954;2024-03-29T01:22:36;8.70;1.00
6270;DHT22;3168;51.684;6.954;2024-03-29T01:25:02;8.60;1.00
6270;DHT22;3168;51.684;6.954;2024-03-29T01:27:28;8.70;1.00
6270;DHT22;3168;51.684;6.954;2024-03-29T01:29:54;8.70;1.00
6270;DHT22;3168;51.684;6.954;2024-03-29T01:32:20;8.70;1.00
6270;DHT22;3168;51.684;6.954;2024-03-29T01:34:46;8.70;1.00
6270;DHT22;3168;51.684;6.954;2024-03-29T01:37:12;8.70;1.00
6270;DHT22;3168;51.684;6.954;2024-03-29T01:39:38;8.70;1.00
6270;DHT22;3168;51.684;6.954;2024-03-29T01:42:04;8.70;1.00
6270;DHT22;3168;51.684;6.954;2024-03-29T01:44:31;8.70;1.00
6270;DHT22;3168;51.684;6.954;2024-03-29T01:46:57;8.70;1.00
6270;DHT22;3168;51.684;6.954;2024-03-29T01:49:23;8.70;1.00
6270;DHT22;3168;51.684;6.954;2024-03-29T01:51:49;8.70;1.00
6270;DHT22;3168;51.684;6.954;2024-03-29T01:54:15;8.70;1.00
6270;DHT22;3168;51.684;6.954;2024-03-29T01:56:41;8.80;1.00
6270;DHT22;3168;51.684;6.954;2024-03-29T01:59:09;8.90;1.00
6270;DHT22;3168;51.684;6.954;2024-03-29T02:01:33;8.90;1.00
6270;DHT22;3168;51.684;6.954;2024-03-29T02:03:59;8.90;1.00
6270;DHT22;3168;51.684;6.954;2024-03-29T02:06:26;8.90;1.00
6270;DHT22;3168;51.684;6.954;2024-03-29T02:08:52;8.90;1.00
6270;DHT22;3168;51.684;6.954;2024-03-29T02:11:19;8.90;1.00
6270;DHT22;3168;51.684;6.954;2024-03-29T02:13:45;8.90;1.00
6270;DHT22;3168;51.684;6.954;2024-03-29T02:16:12;9.10;1.00
6270;DHT22;3168;51.684;6.954;2024-03-29T02:18:38;9.00;1.00
6270;DHT22;3168;51.684;6.954;2024-03-29T02:21:04;9.10;1.00
6270;DHT22;3168;51.684;6.954;2024-03-29T02:23:31;9.20;1.00
6270;DHT22;3168;51.684;6.954;2024-03-29T02:25:56;9.20;1.00
6270;DHT22;3168;51.684;6.954;2024-03-29T02:28:22;9.20;1.00
6270;DHT22;3168;51.684;6.954;2024-03-29T02:30:49;9.40;1.00
6270;DHT22;3168;51.684;6.954;2024-03-29T02:33:14;9.40;1.00
6270;DHT22;3168;51.684;6.954;2024-03-29T02:35:40;9.40;1.00
6270;DHT22;3168;51.684;6.954;2024-03-29T02:38:06;9.50;1.00
6270;DHT22;3168;51.684;6.954;2024-03-29T02:40:32;9.50;1.00
6270;DHT22;3168;51.684;6.954;2024-03-29T02:42:58;9.50;1.00
6270;DHT22;3168;51.684;6.954;2024-03-29T02:45:24;9.50;1.00
6270;DHT22;3168;51.684;6.954;2024-03-29T02:47:50;9.60;1.00
6270;DHT22;3168;51.684;6.954;2024-03-29T02:50:16;9.50;1.00
6270;DHT22;3168;51.684;6.954;2024-03-29T02:52:42;9.60;1.00
6270;DHT22;3168;51.684;6.954;2024-03-29T02:55:08;9.50;1.00
6270;DHT22;3168;51.684;6.954;2024-03-29T02:57:34;9.60;1.00
6270;DHT22;3168;51.684;6.954;2024-03-29T03:00:00;9.60;1.00
6270;DHT22;3168;51.684;6.954;2024-03-29T03:02:26;9.60;1.00
6270;DHT22;3168;51.684;6.954;2024-03-29T03:04:52;9.60;1.00
6270;DHT22;3168;51.684;6.954;2024-03-29T03:07:18;9.60;1.00
6270;DHT22;3168;51.684;6.954;2024-03-29T03:09:50;9.60;1.00
6270;DHT22;3168;51.684;6.954;2024-03-29T03:12:22;9.70;1.00
6270;DHT22;3168;51.684;6.954;2024-03-29T03:14:48;9.70;1.00
6270;DHT22;3168;51.684;6.954;2024-03-29T03:17:14;9.70;1.00
6270;DHT22;3168;51.684;6.954;2024-03-29T03:19:40;9.70;1.00
6270;DHT22;3168;51.684;6.954;2024-03-29T03:22:06;9.70;1.00
6270;DHT22;3168;51.684;6.954;2024-03-29T03:24:32;9.80;1.00
6270;DHT22;3168;51.684;6.954;2024-03-29T03:26:58;9.80;1.00
6270;DHT22;3168;51.684;6.954;2024-03-29T03:29:24;9.70;1.00
6270;DHT22;3168;51.684;6.954;2024-03-29T03:31:50;9.70;1.00
6270;DHT22;3168;51.684;6.954;2024-03-29T03:34:17;9.80;1.00
6270;DHT22;3168;51.684;6.954;2024-03-29T03:36:43;9.80;1.00
6270;DHT22;3168;51.684;6.954;2024-03-29T03:39:09;9.60;1.00
6270;DHT22;3168;51.684;6.954;2024-03-29T03:41:35;9.70;1.00
6270;DHT22;3168;51.684;6.954;2024-03-29T03:44:01;9.60;1.00
6270;DHT22;3168;51.684;6.954;2024-03-29T03:46:27;9.60;1.00
6270;DHT22;3168;51.684;6.954;2024-03-29T03:48:53;9.50;1.00
6270;DHT22;3168;51.684;6.954;2024-03-29T03:51:19;9.30;1.00
6270;DHT22;3168;51.684;6.954;2024-03-29T03:53:45;9.40;1.00
6270;DHT22;3168;51.684;6.954;2024-03-29T03:56:11;9.40;1.00
6270;DHT22;3168;51.684;6.954;2024-03-29T03:58:37;9.40;1.00
6270;DHT22;3168;51.684;6.954;2024-03-29T04:01:03;9.30;1.00
6270;DHT22;3168;51.684;6.954;2024-03-29T04:03:29;9.30;1.00
6270;DHT22;3168;51.684;6.954;2024-03-29T04:05:55;9.30;1.00
6270;DHT22;3168;51.684;6.954;2024-03-29T04:08:21;9.20;1.00
6270;DHT22;3168;51.684;6.954;2024-03-29T04:10:47;9.20;1.00
6270;DHT22;3168;51.684;6.954;2024-03-29T04:13:13;9.20;1.00
6270;DHT22;3168;51.684;6.954;2024-03-29T04:15:39;9.20;1.00
6270;DHT22;3168;51.684;6.954;2024-03-29T04:18:05;9.20;1.00
6270;DHT22;3168;51.684;6.954;2024-03-29T04:20:30;9.20;1.00
6270;DHT22;3168;51.684;6.954;2024-03-29T04:22:56;9.10;1.00
6270;DHT22;3168;51.684;6.954;2024-03-29T04:25:22;9.00;1.00
6270;DHT22;3168;51.684;6.954;2024-03-29T04:27:48;8.90;1.00
6270;DHT22;3168;51.684;6.954;2024-03-29T04:30:14;8.80;1.00
6270;DHT22;3168;51.684;6.954;2024-03-29T04:32:40;8.70;1.00
6270;DHT22;3168;51.684;6.954;2024-03-29T04:35:06;8.60;1.00
6270;DHT22;3168;51.684;6.954;2024-03-29T04:37:32;8.50;1.00
6270;DHT22;3168;51.684;6.954;2024-03-29T04:39:57;8.40;1.00
6270;DHT22;3168;51.684;6.954;2024-03-29T04:42:23;8.30;1.00
6270;DHT22;3168;51.684;6.954;2024-03-29T04:44:49;8.20;1.00
6270;DHT22;3168;51.684;6.954;2024-03-29T04:47:15;8.10;1.00
6270;DHT22;3168;51.684;6.954;2024-03-29T04:49:41;8.10;1.00
6270;DHT22;3168;51.684;6.954;2024-03-29T04:52:06;8.00;1.00
6270;DHT22;3168;51.684;6.954;2024-03-29T04:54:39;7.90;1.00
6270;DHT22;3168;51.684;6.954;2024-03-29T04:57:05;7.90;1.00
6270;DHT22;3168;51.684;6.954;2024-03-29T04:59:32;7.80;1.00
6270;DHT22;3168;51.684;6.954;2024-03-29T05:01:59;7.80;1.00
6270;DHT22;3168;51.684;6.954;2024-03-29T05:04:24;7.80;1.00
6270;DHT22;3168;51.684;6.954;2024-03-29T05:06:54;7.80;1.00
6270;DHT22;3168;51.684;6.954;2024-03-29T05:09:20;7.70;1.00
6270;DHT22;3168;51.684;6.954;2024-03-29T05:11:46;7.70;12.00
6270;DHT22;3168;51.684;6.954;2024-03-29T05:14:15;7.70;24.10
6270;DHT22;3168;51.684;6.954;2024-03-29T05:16:41;7.60;41.10
6270;DHT22;3168;51.684;6.954;2024-03-29T05:19:06;7.60;59.30
6270;DHT22;3168;51.684;6.954;2024-03-29T05:21:32;7.70;59.50
6270;DHT22;3168;51.684;6.954;2024-03-29T05:23:58;7.60;62.70
6270;DHT22;3168;51.684;6.954;2024-03-29T05:26:24;7.60;92.90
6270;DHT22;3168;51.684;6.954;2024-03-29T05:28:50;7.60;99.90
6270;DHT22;3168;51.684;6.954;2024-03-29T05:31:16;7.60;99.90
6270;DHT22;3168;51.684;6.954;2024-03-29T05:33:41;7.60;99.90
6270;DHT22;3168;51.684;6.954;2024-03-29T05:36:07;7.60;99.90
6270;DHT22;3168;51.684;6.954;2024-03-29T05:38:33;7.50;99.90
6270;DHT22;3168;51.684;6.954;2024-03-29T05:40:59;7.50;99.90
6270;DHT22;3168;51.684;6.954;2024-03-29T05:43:25;7.50;99.90
6270;DHT22;3168;51.684;6.954;2024-03-29T05:45:52;7.50;99.90
6270;DHT22;3168;51.684;6.954;2024-03-29T05:48:18;7.50;99.90
6270;DHT22;3168;51.684;6.954;2024-03-29T05:50:45;7.50;99.90
6270;DHT22;3168;51.684;6.954;2024-03-29T05:53:11;7.50;99.90
6270;DHT22;3168;51.684;6.954;2024-03-29T05:55:37;7.50;99.90
6270;DHT22;3168;51.684;6.954;2024-03-29T05:58:03;7.50;99.90
6270;DHT22;3168;51.684;6.954;2024-03-29T06:00:29;7.50;99.90
6270;DHT22;3168;51.684;6.954;2024-03-29T06:02:55;7.50;99.90
6270;DHT22;3168;51.684;6.954;2024-03-29T06:05:20;7.50;99.90
6270;DHT22;3168;51.684;6.954;2024-03-29T06:07:46;7.40;99.90
6270;DHT22;3168;51.684;6.954;2024-03-29T06:10:12;7.50;99.90
6270;DHT22;3168;51.684;6.954;2024-03-29T06:12:38;7.40;99.90
6270;DHT22;3168;51.684;6.954;2024-03-29T06:15:06;7.40;99.90
6270;DHT22;3168;51.684;6.954;2024-03-29T06:17:38;7.40;99.90
6270;DHT22;3168;51.684;6.954;2024-03-29T06:20:04;7.40;99.90
6270;DHT22;3168;51.684;6.954;2024-03-29T06:22:30;7.40;99.90
6270;DHT22;3168;51.684;6.954;2024-03-29T06:24:56;7.40;99.90
6270;DHT22;3168;51.684;6.954;2024-03-29T06:27:22;7.40;99.90
6270;DHT22;3168;51.684;6.954;2024-03-29T06:29:49;7.40;99.90
6270;DHT22;3168;51.684;6.954;2024-03-29T06:32:14;7.30;99.90
6270;DHT22;3168;51.684;6.954;2024-03-29T06:34:39;7.40;99.90
6270;DHT22;3168;51.684;6.954;2024-03-29T06:37:05;7.40;99.90
6270;DHT22;3168;51.684;6.954;2024-03-29T06:39:31;7.50;99.90
6270;DHT22;3168;51.684;6.954;2024-03-29T06:41:57;7.50;99.90
6270;DHT22;3168;51.684;6.954;2024-03-29T06:44:24;7.50;99.90
6270;DHT22;3168;51.684;6.954;2024-03-29T06:46:50;7.40;99.90
6270;DHT22;3168;51.684;6.954;2024-03-29T06:49:16;7.40;99.90
6270;DHT22;3168;51.684;6.954;2024-03-29T06:51:41;7.50;99.90
6270;DHT22;3168;51.684;6.954;2024-03-29T06:54:07;7.50;99.90
6270;DHT22;3168;51.684;6.954;2024-03-29T06:56:33;7.50;99.90
6270;DHT22;3168;51.684;6.954;2024-03-29T06:58:59;7.50;99.90
6270;DHT22;3168;51.684;6.954;2024-03-29T07:01:25;7.50;99.90
6270;DHT22;3168;51.684;6.954;2024-03-29T07:03:51;7.50;99.90
6270;DHT22;3168;51.684;6.954;2024-03-29T07:06:17;7.50;99.90
6270;DHT22;3168;51.684;6.954;2024-03-29T07:08:43;7.50;99.90
6270;DHT22;3168;51.684;6.954;2024-03-29T07:11:09;7.50;99.90
6270;DHT22;3168;51.684;6.954;2024-03-29T07:13:36;7.50;99.90
6270;DHT22;3168;51.684;6.954;2024-03-29T07:16:02;7.60;99.90
6270;DHT22;3168;51.684;6.954;2024-03-29T07:18:28;7.60;99.90
6270;DHT22;3168;51.684;6.954;2024-03-29T07:20:54;7.60;99.90
6270;DHT22;3168;51.684;6.954;2024-03-29T07:23:20;7.70;99.90
6270;DHT22;3168;51.684;6.954;2024-03-29T07:25:56;7.80;99.90
6270;DHT22;3168;51.684;6.954;2024-03-29T07:28:12;7.80;99.90
6270;DHT22;3168;51.684;6.954;2024-03-29T07:30:38;7.90;99.90
6270;DHT22;3168;51.684;6.954;2024-03-29T07:33:04;7.90;99.90
6270;DHT22;3168;51.684;6.954;2024-03-29T07:35:30;7.90;99.90
6270;DHT22;3168;51.684;6.954;2024-03-29T07:37:56;8.00;99.90
6270;DHT22;3168;51.684;6.954;2024-03-29T07:40:22;8.10;99.90
6270;DHT22;3168;51.684;6.954;2024-03-29T07:42:48;8.10;99.90
6270;DHT22;3168;51.684;6.954;2024-03-29T07:45:14;8.10;99.90
6270;DHT22;3168;51.684;6.954;2024-03-29T07:47:40;8.20;99.90
6270;DHT22;3168;51.684;6.954;2024-03-29T07:50:06;8.20;99.90
6270;DHT22;3168;51.684;6.954;2024-03-29T07:52:33;8.30;99.90
6270;DHT22;3168;51.684;6.954;2024-03-29T07:54:59;8.40;99.90
6270;DHT22;3168;51.684;6.954;2024-03-29T07:57:25;8.50;99.90
6270;DHT22;3168;51.684;6.954;2024-03-29T07:59:51;8.60;99.90
6270;DHT22;3168;51.684;6.954;2024-03-29T08:02:17;8.80;99.90
6270;DHT22;3168;51.684;6.954;2024-03-29T08:04:43;8.70;99.90
6270;DHT22;3168;51.684;6.954;2024-03-29T08:07:10;8.80;99.90
6270;DHT22;3168;51.684;6.954;2024-03-29T08:09:36;8.90;99.90
6270;DHT22;3168;51.684;6.954;2024-03-29T08:12:03;8.90;99.90
6270;DHT22;3168;51.684;6.954;2024-03-29T08:14:29;9.00;99.90
6270;DHT22;3168;51.684;6.954;2024-03-29T08:17:03;8.90;99.90
6270;DHT22;3168;51.684;6.954;2024-03-29T08:19:29;9.00;99.90
6270;DHT22;3168;51.684;6.954;2024-03-29T08:21:55;9.10;99.90
6270;DHT22;3168;51.684;6.954;2024-03-29T08:24:21;9.20;99.90
6270;DHT22;3168;51.684;6.954;2024-03-29T08:26:47;9.40;98.60
6270;DHT22;3168;51.684;6.954;2024-03-29T08:29:13;9.50;94.80
6270;DHT22;3168;51.684;6.954;2024-03-29T08:31:39;9.50;79.10
6270;DHT22;3168;51.684;6.954;2024-03-29T08:34:04;9.60;70.00
6270;DHT22;3168;51.684;6.954;2024-03-29T08:36:30;9.70;61.30
6270;DHT22;3168;51.684;6.954;2024-03-29T08:38:57;9.90;62.50
6270;DHT22;3168;51.684;6.954;2024-03-29T08:41:23;9.90;61.40
6270;DHT22;3168;51.684;6.954;2024-03-29T08:43:49;10.10;61.90
6270;DHT22;3168;51.684;6.954;2024-03-29T08:46:15;10.20;60.60
6270;DHT22;3168;51.684;6.954;2024-03-29T08:48:41;10.10;60.70
6270;DHT22;3168;51.684;6.954;2024-03-29T08:51:07;10.30;60.70
6270;DHT22;3168;51.684;6.954;2024-03-29T08:53:32;10.40;61.00
6270;DHT22;3168;51.684;6.954;2024-03-29T08:55:58;10.50;60.90
6270;DHT22;3168;51.684;6.954;2024-03-29T08:58:24;10.70;61.10
6270;DHT22;3168;51.684;6.954;2024-03-29T09:00:53;10.70;42.50
6270;DHT22;3168;51.684;6.954;2024-03-29T09:03:19;10.70;36.00
6270;DHT22;3168;51.684;6.954;2024-03-29T09:05:45;10.70;30.60
6270;DHT22;3168;51.684;6.954;2024-03-29T09:08:11;10.70;51.30
6270;DHT22;3168;51.684;6.954;2024-03-29T09:10:37;10.80;46.50
6270;DHT22;3168;51.684;6.954;2024-03-29T09:13:03;10.80;58.60
6270;DHT22;3168;51.684;6.954;2024-03-29T09:15:29;10.90;44.60
6270;DHT22;3168;51.684;6.954;2024-03-29T09:17:54;10.80;61.20
6270;DHT22;3168;51.684;6.954;2024-03-29T09:20:20;10.60;61.10
6270;DHT22;3168;51.684;6.954;2024-03-29T09:22:49;10.50;61.00
6270;DHT22;3168;51.684;6.954;2024-03-29T09:25:12;10.50;61.30
6270;DHT22;3168;51.684;6.954;2024-03-29T09:27:38;10.50;92.90
6270;DHT22;3168;51.684;6.954;2024-03-29T09:30:05;10.50;97.00
6270;DHT22;3168;51.684;6.954;2024-03-29T09:32:31;10.50;97.90
6270;DHT22;3168;51.684;6.954;2024-03-29T09:34:57;10.50;98.20
6270;DHT22;3168;51.684;6.954;2024-03-29T09:37:23;10.50;99.90
6270;DHT22;3168;51.684;6.954;2024-03-29T09:39:49;10.50;99.90
6270;DHT22;3168;51.684;6.954;2024-03-29T09:42:15;10.50;99.90
6270;DHT22;3168;51.684;6.954;2024-03-29T09:44:40;10.60;99.90
6270;DHT22;3168;51.684;6.954;2024-03-29T09:47:06;10.70;99.90
6270;DHT22;3168;51.684;6.954;2024-03-29T09:49:32;10.80;99.90
6270;DHT22;3168;51.684;6.954;2024-03-29T09:51:59;10.90;99.90
6270;DHT22;3168;51.684;6.954;2024-03-29T09:54:27;10.80;99.90
6270;DHT22;3168;51.684;6.954;2024-03-29T09:56:52;10.70;99.90
6270;DHT22;3168;51.684;6.954;2024-03-29T09:59:18;10.70;99.90
6270;DHT22;3168;51.684;6.954;2024-03-29T10:01:44;10.80;99.90
6270;DHT22;3168;51.684;6.954;2024-03-29T10:04:09;10.80;99.90
6270;DHT22;3168;51.684;6.954;2024-03-29T10:06:37;10.90;99.10
6270;DHT22;3168;51.684;6.954;2024-03-29T10:09:01;10.80;99.90
6270;DHT22;3168;51.684;6.954;2024-03-29T10:11:27;10.80;92.20
6270;DHT22;3168;51.684;6.954;2024-03-29T10:13:54;10.90;95.50
6270;DHT22;3168;51.684;6.954;2024-03-29T10:16:20;11.10;87.60
6270;DHT22;3168;51.684;6.954;2024-03-29T10:18:48;11.00;64.50
6270;DHT22;3168;51.684;6.954;2024-03-29T10:21:14;11.00;76.70
6270;DHT22;3168;51.684;6.954;2024-03-29T10:23:40;11.10;66.00
6270;DHT22;3168;51.684;6.954;2024-03-29T10:26:06;11.20;62.50
6270;DHT22;3168;51.684;6.954;2024-03-29T10:28:33;11.20;61.60
6270;DHT22;3168;51.684;6.954;2024-03-29T10:31:03;11.60;57.30
6270;DHT22;3168;51.684;6.954;2024-03-29T10:33:29;11.60;48.10
6270;DHT22;3168;51.684;6.954;2024-03-29T10:35:56;11.70;32.40
6270;DHT22;3168;51.684;6.954;2024-03-29T10:38:22;11.90;21.70
6270;DHT22;3168;51.684;6.954;2024-03-29T10:40:48;12.00;13.10
6270;DHT22;3168;51.684;6.954;2024-03-29T10:43:14;12.00;1.00
6270;DHT22;3168;51.684;6.954;2024-03-29T10:45:40;12.20;1.00
6270;DHT22;3168;51.684;6.954;2024-03-29T10:48:06;12.30;1.00
6270;DHT22;3168;51.684;6.954;2024-03-29T10:50:34;12.50;1.00
6270;DHT22;3168;51.684;6.954;2024-03-29T10:52:59;12.60;1.00
6270;DHT22;3168;51.684;6.954;2024-03-29T10:55:25;12.60;1.00
6270;DHT22;3168;51.684;6.954;2024-03-29T10:57:51;12.60;1.00
6270;DHT22;3168;51.684;6.954;2024-03-29T11:00:17;12.70;1.00
6270;DHT22;3168;51.684;6.954;2024-03-29T11:02:48;12.50;1.00
6270;DHT22;3168;51.684;6.954;2024-03-29T11:05:14;12.50;1.00
6270;DHT22;3168;51.684;6.954;2024-03-29T11:07:40;12.60;1.00
6270;DHT22;3168;51.684;6.954;2024-03-29T11:10:11;12.60;1.00
6270;DHT22;3168;51.684;6.954;2024-03-29T11:12:35;12.70;1.00
6270;DHT22;3168;51.684;6.954;2024-03-29T11:15:03;13.20;1.00
6270;DHT22;3168;51.684;6.954;2024-03-29T11:17:30;13.20;1.00
6270;DHT22;3168;51.684;6.954;2024-03-29T11:19:58;13.50;1.00
6270;DHT22;3168;51.684;6.954;2024-03-29T11:22:24;13.60;1.00
6270;DHT22;3168;51.684;6.954;2024-03-29T11:24:50;13.30;1.00
6270;DHT22;3168;51.684;6.954;2024-03-29T11:27:16;13.40;1.00
6270;DHT22;3168;51.684;6.954;2024-03-29T11:29:42;13.20;1.00
6270;DHT22;3168;51.684;6.954;2024-03-29T11:32:08;13.30;1.00
6270;DHT22;3168;51.684;6.954;2024-03-29T11:34:34;13.40;1.00
6270;DHT22;3168;51.684;6.954;2024-03-29T11:37:06;13.30;1.00
6270;DHT22;3168;51.684;6.954;2024-03-29T11:39:33;13.30;1.00
6270;DHT22;3168;51.684;6.954;2024-03-29T11:41:57;13.50;1.00
6270;DHT22;3168;51.684;6.954;2024-03-29T11:44:23;13.40;1.00
6270;DHT22;3168;51.684;6.954;2024-03-29T11:46:49;13.50;1.00
6270;DHT22;3168;51.684;6.954;2024-03-29T11:49:15;13.40;1.00
6270;DHT22;3168;51.684;6.954;2024-03-29T11:51:41;13.60;1.00
6270;DHT22;3168;51.684;6.954;2024-03-29T11:54:07;13.70;1.00
6270;DHT22;3168;51.684;6.954;2024-03-29T11:56:33;14.00;1.00
6270;DHT22;3168;51.684;6.954;2024-03-29T11:58:59;14.10;1.00
6270;DHT22;3168;51.684;6.954;2024-03-29T12:01:26;14.30;1.00
6270;DHT22;3168;51.684;6.954;2024-03-29T12:03:53;14.50;1.00
6270;DHT22;3168;51.684;6.954;2024-03-29T12:06:19;14.50;1.00
6270;DHT22;3168;51.684;6.954;2024-03-29T12:08:44;14.40;1.00
6270;DHT22;3168;51.684;6.954;2024-03-29T12:11:10;14.30;1.00
6270;DHT22;3168;51.684;6.954;2024-03-29T12:13:36;14.50;1.00
6270;DHT22;3168;51.684;6.954;2024-03-29T12:16:03;14.40;1.00
6270;DHT22;3168;51.684;6.954;2024-03-29T12:18:29;14.20;1.00
6270;DHT22;3168;51.684;6.954;2024-03-29T12:20:58;14.10;1.00
6270;DHT22;3168;51.684;6.954;2024-03-29T12:23:24;14.10;1.00
6270;DHT22;3168;51.684;6.954;2024-03-29T12:25:53;13.90;1.00
6270;DHT22;3168;51.684;6.954;2024-03-29T12:28:17;13.90;1.00
6270;DHT22;3168;51.684;6.954;2024-03-29T12:30:44;13.80;1.00
6270;DHT22;3168;51.684;6.954;2024-03-29T12:33:12;13.60;1.00
6270;DHT22;3168;51.684;6.954;2024-03-29T12:35:37;13.40;1.00
6270;DHT22;3168;51.684;6.954;2024-03-29T12:38:04;13.10;1.00
6270;DHT22;3168;51.684;6.954;2024-03-29T12:40:31;12.80;1.00
6270;DHT22;3168;51.684;6.954;2024-03-29T12:42:56;12.70;1.00
6270;DHT22;3168;51.684;6.954;2024-03-29T12:45:22;12.70;1.00
6270;DHT22;3168;51.684;6.954;2024-03-29T12:47:48;12.60;1.00
6270;DHT22;3168;51.684;6.954;2024-03-29T12:50:19;12.50;1.00
6270;DHT22;3168;51.684;6.954;2024-03-29T12:52:42;12.60;1.00
6270;DHT22;3168;51.684;6.954;2024-03-29T12:55:08;12.70;1.00
6270;DHT22;3168;51.684;6.954;2024-03-29T12:57:34;12.90;1.00
6270;DHT22;3168;51.684;6.954;2024-03-29T13:00:01;13.00;1.00
6270;DHT22;3168;51.684;6.954;2024-03-29T13:02:27;13.30;1.00
6270;DHT22;3168;51.684;6.954;2024-03-29T13:04:53;13.30;1.00
6270;DHT22;3168;51.684;6.954;2024-03-29T13:07:20;13.40;1.00
6270;DHT22;3168;51.684;6.954;2024-03-29T13:09:46;13.40;1.00
6270;DHT22;3168;51.684;6.954;2024-03-29T13:12:12;13.50;1.00
6270;DHT22;3168;51.684;6.954;2024-03-29T13:14:38;13.60;1.00
6270;DHT22;3168;51.684;6.954;2024-03-29T13:17:04;13.40;1.00
6270;DHT22;3168;51.684;6.954;2024-03-29T13:19:30;13.30;1.00
6270;DHT22;3168;51.684;6.954;2024-03-29T13:21:57;13.30;1.00
6270;DHT22;3168;51.684;6.954;2024-03-29T13:24:23;13.20;1.00
6270;DHT22;3168;51.684;6.954;2024-03-29T13:26:49;13.20;1.00
6270;DHT22;3168;51.684;6.954;2024-03-29T13:29:15;13.30;1.00
6270;DHT22;3168;51.684;6.954;2024-03-29T13:31:41;13.20;1.00
6270;DHT22;3168;51.684;6.954;2024-03-29T13:34:07;13.30;1.00
6270;DHT22;3168;51.684;6.954;2024-03-29T13:36:39;13.30;1.00
6270;DHT22;3168;51.684;6.954;2024-03-29T13:39:05;13.40;1.00
6270;DHT22;3168;51.684;6.954;2024-03-29T13:41:31;13.50;1.00
6270;DHT22;3168;51.684;6.954;2024-03-29T13:43:57;13.50;1.00
6270;DHT22;3168;51.684;6.954;2024-03-29T13:46:23;13.40;1.00
6270;DHT22;3168;51.684;6.954;2024-03-29T13:48:49;13.50;1.00
6270;DHT22;3168;51.684;6.954;2024-03-29T13:51:14;13.70;1.00
6270;DHT22;3168;51.684;6.954;2024-03-29T13:53:48;13.80;1.00
6270;DHT22;3168;51.684;6.954;2024-03-29T13:56:13;13.90;1.00
6270;DHT22;3168;51.684;6.954;2024-03-29T13:58:39;13.80;1.00
6270;DHT22;3168;51.684;6.954;2024-03-29T14:01:05;13.80;1.00
6270;DHT22;3168;51.684;6.954;2024-03-29T14:03:31;13.80;1.00
6270;DHT22;3168;51.684;6.954;2024-03-29T14:05:57;13.80;1.00
6270;DHT22;3168;51.684;6.954;2024-03-29T14:08:23;13.80;1.00
6270;DHT22;3168;51.684;6.954;2024-03-29T14:10:49;13.70;1.00
6270;DHT22;3168;51.684;6.954;2024-03-29T14:13:16;13.90;1.00
6270;DHT22;3168;51.684;6.954;2024-03-29T14:15:42;13.80;1.00
6270;DHT22;3168;51.684;6.954;2024-03-29T14:18:08;14.00;1.00
6270;DHT22;3168;51.684;6.954;2024-03-29T14:20:34;14.10;1.00
6270;DHT22;3168;51.684;6.954;2024-03-29T14:23:00;13.90;1.00
6270;DHT22;3168;51.684;6.954;2024-03-29T14:25:26;13.90;1.00
6270;DHT22;3168;51.684;6.954;2024-03-29T14:27:52;14.10;1.00
6270;DHT22;3168;51.684;6.954;2024-03-29T14:30:20;14.40;1.00
6270;DHT22;3168;51.684;6.954;2024-03-29T14:32:46;14.50;1.00
6270;DHT22;3168;51.684;6.954;2024-03-29T14:35:12;14.70;1.00
6270;DHT22;3168;51.684;6.954;2024-03-29T14:37:38;14.50;1.00
6270;DHT22;3168;51.684;6.954;2024-03-29T14:40:05;14.40;1.00
6270;DHT22;3168;51.684;6.954;2024-03-29T14:42:31;14.60;1.00
6270;DHT22;3168;51.684;6.954;2024-03-29T14:44:57;14.60;1.00
6270;DHT22;3168;51.684;6.954;2024-03-29T14:47:23;14.40;1.00
6270;DHT22;3168;51.684;6.954;2024-03-29T14:49:48;14.60;1.00
6270;DHT22;3168;51.684;6.954;2024-03-29T14:52:14;14.80;1.00
6270;DHT22;3168;51.684;6.954;2024-03-29T14:54:40;15.10;1.00
6270;DHT22;3168;51.684;6.954;2024-03-29T14:57:06;15.50;1.00
6270;DHT22;3168;51.684;6.954;2024-03-29T14:59:32;15.90;1.00
6270;DHT22;3168;51.684;6.954;2024-03-29T15:01:58;15.80;1.00
6270;DHT22;3168;51.684;6.954;2024-03-29T15:04:24;15.80;1.00
6270;DHT22;3168;51.684;6.954;2024-03-29T15:06:50;15.80;1.00
6270;DHT22;3168;51.684;6.954;2024-03-29T15:09:16;15.70;1.00
6270;DHT22;3168;51.684;6.954;2024-03-29T15:11:42;15.60;1.00
6270;DHT22;3168;51.684;6.954;2024-03-29T15:14:07;15.60;1.00
6270;DHT22;3168;51.684;6.954;2024-03-29T15:16:33;15.60;1.00
6270;DHT22;3168;51.684;6.954;2024-03-29T15:18:59;15.40;1.00
6270;DHT22;3168;51.684;6.954;2024-03-29T15:21:25;15.40;1.00
6270;DHT22;3168;51.684;6.954;2024-03-29T15:23:51;15.30;1.00
6270;DHT22;3168;51.684;6.954;2024-03-29T15:26:17;15.20;1.00
6270;DHT22;3168;51.684;6.954;2024-03-29T15:28:43;15.20;1.00
6270;DHT22;3168;51.684;6.954;2024-03-29T15:31:17;15.10;1.00
6270;DHT22;3168;51.684;6.954;2024-03-29T15:33:42;15.10;1.00
6270;DHT22;3168;51.684;6.954;2024-03-29T15:36:07;15.10;1.00
6270;DHT22;3168;51.684;6.954;2024-03-29T15:38:34;14.90;1.00
6270;DHT22;3168;51.684;6.954;2024-03-29T15:41:00;14.90;1.00
6270;DHT22;3168;51.684;6.954;2024-03-29T15:43:26;14.90;1.00
6270;DHT22;3168;51.684;6.954;2024-03-29T15:45:52;14.80;1.00
6270;DHT22;3168;51.684;6.954;2024-03-29T15:48:18;14.80;1.00
6270;DHT22;3168;51.684;6.954;2024-03-29T15:50:44;14.70;1.00
6270;DHT22;3168;51.684;6.954;2024-03-29T15:53:10;14.70;1.00
6270;DHT22;3168;51.684;6.954;2024-03-29T15:55:35;14.70;1.00
6270;DHT22;3168;51.684;6.954;2024-03-29T15:58:01;14.70;1.00
6270;DHT22;3168;51.684;6.954;2024-03-29T16:00:27;14.60;1.00
6270;DHT22;3168;51.684;6.954;2024-03-29T16:02:53;14.60;1.00
6270;DHT22;3168;51.684;6.954;2024-03-29T16:05:19;14.50;1.00
6270;DHT22;3168;51.684;6.954;2024-03-29T16:07:45;14.50;1.00
6270;DHT22;3168;51.684;6.954;2024-03-29T16:10:10;14.50;1.00
6270;DHT22;3168;51.684;6.954;2024-03-29T16:12:36;14.40;1.00
6270;DHT22;3168;51.684;6.954;2024-03-29T16:15:03;14.50;1.00